createdAt,value
2023-04-13T00:00:35.765Z,15.38
2023-04-13T00:03:02.080Z,15.38
2023-04-13T00:05:28.412Z,15.39
2023-04-13T00:07:54.533Z,15.38
2023-04-13T00:10:20.638Z,15.38
2023-04-13T00:12:46.766Z,15.38
2023-04-13T00:15:12.859Z,15.38
2023-04-13T00:17:38.969Z,15.38
2023-04-13T00:20:05.104Z,15.38
2023-04-13T00:22:31.186Z,15.38
2023-04-13T00:24:57.270Z,15.37
2023-04-13T00:27:23.382Z,15.37
2023-04-13T00:29:49.472Z,15.37
2023-04-13T00:32:15.565Z,15.37
2023-04-13T00:34:41.729Z,15.36
2023-04-13T00:37:07.814Z,15.37
2023-04-13T00:39:33.911Z,15.35
2023-04-13T00:42:00.036Z,15.36
2023-04-13T00:44:26.127Z,15.35
2023-04-13T00:46:52.354Z,15.36
2023-04-13T00:49:18.476Z,15.35
2023-04-13T00:51:44.577Z,15.35
2023-04-13T00:54:10.684Z,15.34
2023-04-13T00:56:36.808Z,15.36
2023-04-13T00:59:02.908Z,15.34
2023-04-13T01:01:29.000Z,15.34
2023-04-13T01:03:55.182Z,15.33
2023-04-13T01:06:21.299Z,15.33
2023-04-13T01:08:47.404Z,15.32
2023-04-13T01:11:13.529Z,15.32
2023-04-13T01:13:39.615Z,15.31
2023-04-13T01:16:05.750Z,15.32
2023-04-13T01:18:31.907Z,15.32
2023-04-13T01:20:57.999Z,15.32
2023-04-13T01:23:24.099Z,15.31
2023-04-13T01:25:50.256Z,15.30
2023-04-13T01:28:16.342Z,15.30
2023-04-13T01:30:42.437Z,15.31
2023-04-13T01:33:08.593Z,15.30
2023-04-13T01:35:34.718Z,15.29
2023-04-13T01:38:00.822Z,15.31
2023-04-13T01:40:26.947Z,15.29
2023-04-13T01:42:53.051Z,15.30
2023-04-13T01:45:19.140Z,15.29
2023-04-13T01:47:45.286Z,15.28
2023-04-13T01:50:11.415Z,15.28
2023-04-13T01:52:37.511Z,15.27
2023-04-13T01:55:04.146Z,15.27
2023-04-13T01:57:30.236Z,15.26
2023-04-13T01:59:56.321Z,15.27
2023-04-13T02:02:22.716Z,15.26
2023-04-13T02:04:48.925Z,15.26
2023-04-13T02:07:15.006Z,15.25
2023-04-13T02:09:41.131Z,15.26
2023-04-13T02:12:07.233Z,15.26
2023-04-13T02:14:33.336Z,15.24
2023-04-13T02:16:59.457Z,15.24
2023-04-13T02:19:25.574Z,15.23
2023-04-13T02:21:51.701Z,15.23
2023-04-13T02:24:17.821Z,15.23
2023-04-13T02:26:43.933Z,15.23
2023-04-13T02:29:10.051Z,15.22
2023-04-13T02:31:36.262Z,15.22
2023-04-13T02:34:02.451Z,15.22
2023-04-13T02:36:28.540Z,15.20
2023-04-13T02:38:54.709Z,15.21
2023-04-13T02:41:20.873Z,15.20
2023-04-13T02:43:46.976Z,15.19
2023-04-13T02:46:13.190Z,15.21
2023-04-13T02:48:39.343Z,15.21
2023-04-13T02:51:05.452Z,15.20
2023-04-13T02:53:31.562Z,15.20
2023-04-13T02:55:57.643Z,15.19
2023-04-13T02:58:23.750Z,15.19
2023-04-13T03:00:49.915Z,15.19
2023-04-13T03:03:16.050Z,15.18
2023-04-13T03:05:42.175Z,15.18
2023-04-13T03:08:08.385Z,15.19
2023-04-13T03:10:34.476Z,15.18
2023-04-13T03:13:00.604Z,15.18
2023-04-13T03:15:26.735Z,15.17
2023-04-13T03:17:53.017Z,15.17
2023-04-13T03:20:19.227Z,15.16
2023-04-13T03:22:45.518Z,15.16
2023-04-13T03:25:11.643Z,15.16
2023-04-13T03:27:37.752Z,15.16
2023-04-13T03:30:03.869Z,15.16
2023-04-13T03:32:29.988Z,15.16
2023-04-13T03:34:56.131Z,15.15
2023-04-13T03:37:22.278Z,15.15
2023-04-13T03:39:48.376Z,15.13
2023-04-13T03:42:14.484Z,15.14
2023-04-13T03:44:40.619Z,15.14
2023-04-13T03:47:06.725Z,15.12
2023-04-13T03:49:32.818Z,15.12
2023-04-13T03:51:58.933Z,15.12
2023-04-13T03:54:25.027Z,15.12
2023-04-13T03:56:51.134Z,15.11
2023-04-13T03:59:17.478Z,15.11
2023-04-13T04:01:43.649Z,15.11
2023-04-13T04:04:09.870Z,15.11
2023-04-13T04:06:36.059Z,15.10
2023-04-13T04:09:02.169Z,15.11
2023-04-13T04:11:28.271Z,15.10
2023-04-13T04:13:54.392Z,15.09
2023-04-13T04:16:20.572Z,15.10
2023-04-13T04:18:46.723Z,15.10
2023-04-13T04:21:12.841Z,15.09
2023-04-13T04:23:38.943Z,15.10
2023-04-13T04:26:05.053Z,15.10
2023-04-13T04:28:31.173Z,15.09
2023-04-13T04:30:57.274Z,15.08
2023-04-13T04:33:23.384Z,15.09
2023-04-13T04:35:49.556Z,15.09
2023-04-13T04:38:15.668Z,15.08
2023-04-13T04:40:41.763Z,15.08
2023-04-13T04:43:07.886Z,15.08
2023-04-13T04:45:33.986Z,15.08
2023-04-13T04:48:00.207Z,15.07
2023-04-13T04:50:26.411Z,15.07
2023-04-13T04:52:52.516Z,15.07
2023-04-13T04:55:18.628Z,15.06
2023-04-13T04:57:44.755Z,15.06
2023-04-13T05:00:10.950Z,15.06
2023-04-13T05:02:37.143Z,15.06
2023-04-13T05:05:03.368Z,15.06
2023-04-13T05:07:29.465Z,15.05
2023-04-13T05:09:55.552Z,15.05
2023-04-13T05:12:22.149Z,15.05
2023-04-13T05:14:48.254Z,15.05
2023-04-13T05:17:14.346Z,15.05
2023-04-13T05:19:40.484Z,15.05
2023-04-13T05:22:06.573Z,15.05
2023-04-13T05:24:32.679Z,15.04
2023-04-13T05:26:58.813Z,15.04
2023-04-13T05:29:24.941Z,15.05
2023-04-13T05:31:51.082Z,15.04
2023-04-13T05:34:17.244Z,15.02
2023-04-13T05:36:43.383Z,15.03
2023-04-13T05:39:09.500Z,15.02
2023-04-13T05:41:36.034Z,15.03
2023-04-13T05:44:02.123Z,15.02
2023-04-13T05:46:28.276Z,15.02
2023-04-13T05:48:54.400Z,15.02
2023-04-13T05:51:20.498Z,15.01
2023-04-13T05:53:46.601Z,15.01
2023-04-13T05:56:12.727Z,15.01
2023-04-13T05:58:38.837Z,15.01
2023-04-13T06:01:04.943Z,15.00
2023-04-13T06:03:31.219Z,15.01
2023-04-13T06:05:57.418Z,15.01
2023-04-13T06:08:23.505Z,15.00
2023-04-13T06:10:49.623Z,14.99
2023-04-13T06:13:15.743Z,15.00
2023-04-13T06:15:41.854Z,15.00
2023-04-13T06:18:08.489Z,14.99
2023-04-13T06:20:34.597Z,14.99
2023-04-13T06:23:00.682Z,14.98
2023-04-13T06:25:26.796Z,14.98
2023-04-13T06:27:52.902Z,14.98
2023-04-13T06:30:19.036Z,14.98
2023-04-13T06:32:45.238Z,14.98
2023-04-13T06:35:11.407Z,14.98
2023-04-13T06:37:37.568Z,14.98
2023-04-13T06:40:03.690Z,14.97
2023-04-13T06:42:29.800Z,14.98
2023-04-13T06:44:55.906Z,14.98
2023-04-13T06:47:22.107Z,14.96
2023-04-13T06:49:48.211Z,14.97
2023-04-13T06:52:14.324Z,14.97
2023-04-13T06:54:40.458Z,14.97
2023-04-13T06:57:06.553Z,14.97
2023-04-13T06:59:35.816Z,14.97
2023-04-13T07:02:02.024Z,14.97
2023-04-13T07:04:30.771Z,14.97
2023-04-13T07:06:58.512Z,14.97
2023-04-13T07:09:24.635Z,14.96
2023-04-13T07:11:50.741Z,14.96
2023-04-13T07:14:16.853Z,14.97
2023-04-13T07:16:42.967Z,14.96
2023-04-13T07:19:09.327Z,14.96
2023-04-13T07:21:35.472Z,14.97
2023-04-13T07:24:01.627Z,14.96
2023-04-13T07:26:27.786Z,14.96
2023-04-13T07:28:53.873Z,14.96
2023-04-13T07:31:20.043Z,14.96
2023-04-13T07:33:46.170Z,14.96
2023-04-13T07:36:12.249Z,14.96
2023-04-13T07:38:38.368Z,14.96
2023-04-13T07:41:04.493Z,14.95
2023-04-13T07:43:30.630Z,14.95
2023-04-13T07:45:56.858Z,14.95
2023-04-13T07:48:23.017Z,14.94
2023-04-13T07:50:49.147Z,14.94
2023-04-13T07:53:15.348Z,14.94
2023-04-13T07:55:41.598Z,14.94
2023-04-13T07:58:07.699Z,14.93
2023-04-13T08:00:33.914Z,14.92
2023-04-13T08:03:00.226Z,14.94
2023-04-13T08:05:26.498Z,14.93
2023-04-13T08:07:52.742Z,14.93
2023-04-13T08:10:18.848Z,14.93
2023-04-13T08:12:44.969Z,14.92
2023-04-13T08:15:11.092Z,14.91
2023-04-13T08:17:37.225Z,14.91
2023-04-13T08:20:03.392Z,14.93
2023-04-13T08:22:29.501Z,14.93
2023-04-13T08:24:55.614Z,14.91
2023-04-13T08:27:21.706Z,14.92
2023-04-13T08:29:47.828Z,14.92
2023-04-13T08:32:13.996Z,14.91
2023-04-13T08:34:40.138Z,14.91
2023-04-13T08:37:06.260Z,14.92
2023-04-13T08:39:32.364Z,14.93
2023-04-13T08:41:58.461Z,14.91
2023-04-13T08:44:24.582Z,14.91
2023-04-13T08:46:52.550Z,14.91
2023-04-13T08:49:19.384Z,14.93
2023-04-13T08:51:45.630Z,14.91
2023-04-13T08:54:11.725Z,14.91
2023-04-13T08:56:46.050Z,14.91
2023-04-13T08:59:13.216Z,14.90
2023-04-13T09:01:39.420Z,14.90
2023-04-13T09:04:05.743Z,14.90
2023-04-13T09:06:32.107Z,14.90
2023-04-13T09:08:58.450Z,14.90
2023-04-13T09:11:24.665Z,14.90
2023-04-13T09:13:50.782Z,14.90
2023-04-13T09:16:16.881Z,14.89
2023-04-13T09:18:42.983Z,14.91
2023-04-13T09:21:09.102Z,14.90
2023-04-13T09:23:35.204Z,14.90
2023-04-13T09:26:01.330Z,14.90
2023-04-13T09:28:27.789Z,14.90
2023-04-13T09:30:53.905Z,14.90
2023-04-13T09:33:20.004Z,14.91
2023-04-13T09:35:46.123Z,14.90
2023-04-13T09:38:12.224Z,14.90
2023-04-13T09:40:38.416Z,14.91
2023-04-13T09:43:04.629Z,14.91
2023-04-13T09:45:30.746Z,14.90
2023-04-13T09:47:56.885Z,14.91
2023-04-13T09:50:23.043Z,14.91
2023-04-13T09:52:49.150Z,14.90
2023-04-13T09:55:15.235Z,14.90
2023-04-13T09:57:41.355Z,14.90
2023-04-13T10:00:07.489Z,14.91
2023-04-13T10:02:33.891Z,14.90
2023-04-13T10:05:00.195Z,14.91
2023-04-13T10:07:26.343Z,14.90
2023-04-13T10:09:52.447Z,14.91
2023-04-13T10:12:18.570Z,14.91
2023-04-13T10:14:44.680Z,14.90
2023-04-13T10:17:10.812Z,14.90
2023-04-13T10:19:36.971Z,14.90
2023-04-13T10:22:03.075Z,14.90
2023-04-13T10:24:29.175Z,14.89
2023-04-13T10:26:55.297Z,14.91
2023-04-13T10:29:21.477Z,14.91
2023-04-13T10:31:47.732Z,14.90
2023-04-13T10:34:14.047Z,14.91
2023-04-13T10:36:40.152Z,14.91
2023-04-13T10:39:06.272Z,14.91
2023-04-13T10:41:32.414Z,14.90
2023-04-13T10:43:58.766Z,14.91
2023-04-13T10:46:25.206Z,14.91
2023-04-13T10:48:51.395Z,14.91
2023-04-13T10:51:17.491Z,14.91
2023-04-13T10:53:43.573Z,14.91
2023-04-13T10:56:10.063Z,14.91
2023-04-13T10:58:36.136Z,14.91
2023-04-13T11:01:02.245Z,14.91
2023-04-13T11:03:28.422Z,14.93
2023-04-13T11:05:54.562Z,14.91
2023-04-13T11:08:21.210Z,14.91
2023-04-13T11:10:47.608Z,14.92
2023-04-13T11:13:13.713Z,14.91
2023-04-13T11:15:39.839Z,14.91
2023-04-13T11:18:06.159Z,14.92
2023-04-13T11:20:32.305Z,14.92
2023-04-13T11:22:58.413Z,14.91
2023-04-13T11:25:24.531Z,14.93
2023-04-13T11:27:50.626Z,14.93
2023-04-13T11:30:16.735Z,14.94
2023-04-13T11:32:42.991Z,14.93
2023-04-13T11:35:09.369Z,14.93
2023-04-13T11:37:35.513Z,14.92
2023-04-13T11:40:01.629Z,14.94
2023-04-13T11:42:27.760Z,14.93
2023-04-13T11:44:53.849Z,14.94
2023-04-13T11:47:20.017Z,14.93
2023-04-13T11:49:46.183Z,14.93
2023-04-13T11:52:12.426Z,14.94
2023-04-13T11:54:38.592Z,14.91
2023-04-13T11:57:04.735Z,14.93
2023-04-13T11:59:30.828Z,14.93
2023-04-13T12:02:02.762Z,14.93
2023-04-13T12:04:30.171Z,14.92
2023-04-13T12:06:56.736Z,14.93
2023-04-13T12:09:31.225Z,14.94
2023-04-13T12:17:26.082Z,14.95
2023-04-13T12:19:58.063Z,14.94
2023-04-13T12:22:24.517Z,14.95
2023-04-13T12:24:51.175Z,14.95
2023-04-13T12:27:19.108Z,14.94
2023-04-13T12:29:45.575Z,14.94
2023-04-13T12:32:11.726Z,14.96
2023-04-13T12:34:37.914Z,14.95
2023-04-13T12:37:04.026Z,14.96
2023-04-13T12:39:30.112Z,14.96
2023-04-13T12:41:56.225Z,14.96
2023-04-13T12:44:22.374Z,14.95
2023-04-13T12:46:48.477Z,14.95
2023-04-13T12:49:14.624Z,14.95
2023-04-13T12:51:40.776Z,14.96
2023-04-13T12:54:06.892Z,14.95
2023-04-13T12:56:33.757Z,14.96
2023-04-13T12:59:00.119Z,14.95
2023-04-13T13:01:26.407Z,14.95
2023-04-13T13:03:52.640Z,14.97
2023-04-13T13:06:18.761Z,14.95
2023-04-13T13:08:44.865Z,14.96
2023-04-13T13:11:10.989Z,14.96
2023-04-13T13:13:37.096Z,14.96
2023-04-13T13:16:03.244Z,14.96
2023-04-13T13:18:39.010Z,14.97
2023-04-13T13:21:15.432Z,14.97
2023-04-13T13:23:41.582Z,14.98
2023-04-13T13:28:39.793Z,14.98
2023-04-13T13:31:05.944Z,14.99
2023-04-13T13:33:32.115Z,14.98
2023-04-13T13:35:58.241Z,14.99
2023-04-13T13:38:24.367Z,14.99
2023-04-13T13:40:50.465Z,14.99
2023-04-13T13:43:16.572Z,14.98
2023-04-13T13:45:42.766Z,14.99
2023-04-13T13:48:08.954Z,14.98
2023-04-13T13:50:35.082Z,14.98
2023-04-13T13:53:04.447Z,14.99
2023-04-13T13:55:30.978Z,14.98
2023-04-13T13:57:57.242Z,14.99
2023-04-13T14:00:23.361Z,14.99
2023-04-13T14:02:49.510Z,14.99
2023-04-13T14:05:15.632Z,14.99
2023-04-13T14:07:41.868Z,14.98
2023-04-13T14:10:07.963Z,14.99
2023-04-13T14:12:34.064Z,15.00
2023-04-13T14:15:00.218Z,15.01
2023-04-13T14:17:26.357Z,14.99
2023-04-13T14:19:52.584Z,14.99
2023-04-13T14:22:18.900Z,15.01
2023-04-13T14:24:44.978Z,15.00
2023-04-13T14:27:11.092Z,15.01
2023-04-13T14:29:37.206Z,15.00
2023-04-13T14:32:03.297Z,15.00
2023-04-13T14:34:29.412Z,14.99
2023-04-13T14:36:55.556Z,15.01
2023-04-13T14:39:21.673Z,15.00
2023-04-13T14:41:47.774Z,14.99
2023-04-13T14:44:13.895Z,15.00
2023-04-13T14:46:40.095Z,15.01
2023-04-13T14:49:06.275Z,15.01
2023-04-13T14:51:32.401Z,15.00
2023-04-13T14:53:58.493Z,15.01
2023-04-13T14:56:24.592Z,15.02
2023-04-13T14:58:50.690Z,15.02
2023-04-13T15:01:16.792Z,15.02
2023-04-13T15:03:43.133Z,15.02
2023-04-13T15:06:09.930Z,15.01
2023-04-13T15:08:36.201Z,15.01
2023-04-13T15:11:02.315Z,15.02
2023-04-13T15:13:28.444Z,15.04
2023-04-13T15:15:54.533Z,15.04
2023-04-13T15:18:20.692Z,15.03
2023-04-13T15:20:46.905Z,15.03
2023-04-13T15:23:13.004Z,15.03
2023-04-13T15:25:39.111Z,15.04
2023-04-13T15:28:05.420Z,15.02
2023-04-13T15:30:31.522Z,15.03
2023-04-13T15:32:57.666Z,15.04
2023-04-13T15:35:25.674Z,15.04
2023-04-13T15:37:52.542Z,15.03
2023-04-13T15:40:18.668Z,15.03
2023-04-13T15:42:45.273Z,15.04
2023-04-13T15:45:11.384Z,15.04
2023-04-13T15:47:37.506Z,15.04
2023-04-13T15:50:03.653Z,15.04
2023-04-13T15:52:29.757Z,15.04
2023-04-13T15:54:55.846Z,15.04
2023-04-13T15:57:21.960Z,15.05
2023-04-13T15:59:48.061Z,15.05
2023-04-13T16:02:14.227Z,15.06
2023-04-13T16:04:40.501Z,15.06
2023-04-13T16:07:13.568Z,15.07
2023-04-13T16:09:40.070Z,15.08
2023-04-13T16:12:06.170Z,15.07
2023-04-13T16:14:32.263Z,15.08
2023-04-13T16:16:58.365Z,15.07
2023-04-13T16:19:24.641Z,15.09
2023-04-13T16:21:50.752Z,15.10
2023-04-13T16:24:16.861Z,15.09
2023-04-13T16:26:42.987Z,15.10
2023-04-13T16:29:09.112Z,15.10
2023-04-13T16:31:35.254Z,15.10
2023-04-13T16:34:06.860Z,15.10
2023-04-13T16:36:38.010Z,15.11
2023-04-13T16:39:04.148Z,15.12
2023-04-13T16:41:30.243Z,15.12
2023-04-13T16:43:56.334Z,15.12
2023-04-13T16:46:22.486Z,15.12
2023-04-13T16:48:48.610Z,15.13
2023-04-13T16:51:14.697Z,15.15
2023-04-13T16:53:40.807Z,15.14
2023-04-13T16:56:06.910Z,15.14
2023-04-13T16:58:33.004Z,15.13
2023-04-13T17:00:59.170Z,15.15
2023-04-13T17:03:25.386Z,15.15
2023-04-13T17:05:51.604Z,15.13
2023-04-13T17:08:17.732Z,15.15
2023-04-13T17:10:43.847Z,15.16
2023-04-13T17:13:09.965Z,15.16
2023-04-13T17:15:36.065Z,15.16
2023-04-13T17:18:02.187Z,15.15
2023-04-13T17:20:28.316Z,15.17
2023-04-13T17:22:54.456Z,15.16
2023-04-13T17:25:20.604Z,15.17
2023-04-13T17:27:46.701Z,15.17
2023-04-13T17:30:12.889Z,15.17
2023-04-13T17:32:39.106Z,15.17
2023-04-13T17:35:05.278Z,15.18
2023-04-13T17:37:31.419Z,15.17
2023-04-13T17:39:57.569Z,15.18
2023-04-13T17:42:23.709Z,15.17
2023-04-13T17:44:49.822Z,15.19
2023-04-13T17:47:15.901Z,15.19
2023-04-13T17:49:42.022Z,15.19
2023-04-13T17:52:08.624Z,15.19
2023-04-13T17:54:34.734Z,15.19
2023-04-13T17:57:00.847Z,15.20
2023-04-13T17:59:26.974Z,15.19
2023-04-13T18:01:53.222Z,15.20
2023-04-13T18:04:19.677Z,15.20
2023-04-13T18:06:45.941Z,15.20
2023-04-13T18:09:12.040Z,15.21
2023-04-13T18:11:38.146Z,15.21
2023-04-13T18:14:04.325Z,15.22
2023-04-13T18:16:30.428Z,15.22
2023-04-13T18:18:56.536Z,15.22
2023-04-13T18:21:22.784Z,15.22
2023-04-13T18:23:48.876Z,15.22
2023-04-13T18:26:14.984Z,15.22
2023-04-13T18:28:41.521Z,15.23
2023-04-13T18:31:07.669Z,15.22
2023-04-13T18:33:33.801Z,15.22
2023-04-13T18:35:59.917Z,15.22
2023-04-13T18:38:26.007Z,15.22
2023-04-13T18:40:52.095Z,15.23
2023-04-13T18:43:18.203Z,15.24
2023-04-13T18:45:44.300Z,15.23
2023-04-13T18:48:10.423Z,15.23
2023-04-13T18:50:36.553Z,15.24
2023-04-13T18:53:02.657Z,15.24
2023-04-13T18:55:28.758Z,15.24
2023-04-13T18:57:54.885Z,15.24
2023-04-13T19:00:20.996Z,15.24
2023-04-13T19:02:47.230Z,15.25
2023-04-13T19:05:13.646Z,15.24
2023-04-13T19:07:39.761Z,15.24
2023-04-13T19:10:05.941Z,15.24
2023-04-13T19:12:32.099Z,15.25
2023-04-13T19:14:58.193Z,15.25
2023-04-13T19:17:24.378Z,15.25
2023-04-13T19:19:50.511Z,15.24
2023-04-13T19:22:16.588Z,15.25
2023-04-13T19:24:42.692Z,15.25
2023-04-13T19:27:08.824Z,15.26
2023-04-13T19:29:35.139Z,15.25
2023-04-13T19:32:01.314Z,15.24
2023-04-13T19:34:27.507Z,15.25
2023-04-13T19:36:53.585Z,15.25
2023-04-13T19:39:19.688Z,15.25
2023-04-13T19:41:45.807Z,15.25
2023-04-13T19:44:11.902Z,15.26
2023-04-13T19:46:37.989Z,15.24
2023-04-13T19:49:04.127Z,15.26
2023-04-13T19:51:30.278Z,15.25
2023-04-13T19:53:56.389Z,15.25
2023-04-13T19:56:22.767Z,15.25
2023-04-13T19:58:48.926Z,15.25
2023-04-13T20:01:15.091Z,15.25
2023-04-13T20:03:41.469Z,15.26
2023-04-13T20:06:07.746Z,15.26
2023-04-13T20:08:33.847Z,15.26
2023-04-13T20:11:00.078Z,15.26
2023-04-13T20:13:26.233Z,15.25
2023-04-13T20:15:52.356Z,15.26
2023-04-13T20:18:18.530Z,15.26
2023-04-13T20:20:44.624Z,15.26
2023-04-13T20:23:10.714Z,15.27
2023-04-13T20:25:36.824Z,15.26
2023-04-13T20:28:02.948Z,15.26
2023-04-13T20:30:29.046Z,15.25
2023-04-13T20:32:55.666Z,15.26
2023-04-13T20:35:21.795Z,15.25
2023-04-13T20:37:47.888Z,15.26
2023-04-13T20:40:14.459Z,15.26
2023-04-13T20:42:40.545Z,15.26
2023-04-13T20:45:06.648Z,15.26
2023-04-13T20:47:32.771Z,15.26
2023-04-13T20:49:58.852Z,15.26
2023-04-13T20:52:24.934Z,15.26
2023-04-13T20:54:51.034Z,15.26
2023-04-13T20:57:17.130Z,15.26
2023-04-13T20:59:43.222Z,15.26
2023-04-13T21:02:09.391Z,15.25
2023-04-13T21:04:35.594Z,15.26
2023-04-13T21:07:01.690Z,15.26
2023-04-13T21:09:27.807Z,15.26
2023-04-13T21:11:53.901Z,15.26
2023-04-13T21:14:19.992Z,15.26
2023-04-13T21:16:46.165Z,15.25
2023-04-13T21:19:12.328Z,15.25
2023-04-13T21:21:38.460Z,15.25
2023-04-13T21:24:04.580Z,15.26
2023-04-13T21:26:30.700Z,15.26
2023-04-13T21:28:56.797Z,15.24
2023-04-13T21:31:22.949Z,15.25
2023-04-13T21:33:49.077Z,15.25
2023-04-13T21:38:44.400Z,15.26
2023-04-13T21:41:10.496Z,15.26
2023-04-13T21:43:36.588Z,15.25
2023-04-13T21:46:02.761Z,15.26
2023-04-13T21:48:28.883Z,15.27
2023-04-13T21:50:54.990Z,15.27
2023-04-13T21:53:21.105Z,15.26
2023-04-13T21:55:47.197Z,15.26
2023-04-13T21:58:13.284Z,15.26
2023-04-13T22:00:39.411Z,15.27
2023-04-13T22:03:05.621Z,15.27
2023-04-13T22:05:31.786Z,15.26
2023-04-13T22:07:57.895Z,15.27
2023-04-13T22:10:23.982Z,15.26
2023-04-13T22:12:50.085Z,15.26
2023-04-13T22:15:16.204Z,15.27
2023-04-13T22:17:42.335Z,15.26
2023-04-13T22:20:08.469Z,15.26
2023-04-13T22:22:34.586Z,15.26
2023-04-13T22:25:00.681Z,15.26
2023-04-13T22:27:26.772Z,15.26
2023-04-13T22:29:52.883Z,15.26
2023-04-13T22:32:19.014Z,15.26
2023-04-13T22:34:45.126Z,15.26
2023-04-13T22:37:11.256Z,15.25
2023-04-13T22:39:37.422Z,15.27
2023-04-13T22:42:03.584Z,15.25
2023-04-13T22:44:29.821Z,15.25
2023-04-13T22:46:56.064Z,15.24
2023-04-13T22:49:22.279Z,15.24
2023-04-13T22:51:48.416Z,15.24
2023-04-13T22:54:14.514Z,15.25
2023-04-13T22:56:40.618Z,15.24
2023-04-13T22:59:06.740Z,15.24
2023-04-13T23:01:32.859Z,15.23
2023-04-13T23:03:59.097Z,15.23
2023-04-13T23:06:25.370Z,15.24
2023-04-13T23:08:53.391Z,15.23
2023-04-13T23:11:19.485Z,15.23
2023-04-13T23:13:45.586Z,15.23
2023-04-13T23:16:11.707Z,15.22
2023-04-13T23:18:37.837Z,15.22
2023-04-13T23:21:03.945Z,15.22
2023-04-13T23:23:30.035Z,15.22
2023-04-13T23:25:56.117Z,15.21
2023-04-13T23:28:22.283Z,15.21
2023-04-13T23:30:48.404Z,15.21
2023-04-13T23:33:14.803Z,15.20
2023-04-13T23:35:40.911Z,15.21
2023-04-13T23:38:07.005Z,15.21
2023-04-13T23:40:33.094Z,15.21
2023-04-13T23:42:59.256Z,15.20
2023-04-13T23:45:25.383Z,15.20
2023-04-13T23:47:51.523Z,15.19
2023-04-13T23:50:17.731Z,15.21
2023-04-13T23:52:43.833Z,15.20
2023-04-13T23:55:09.911Z,15.20
2023-04-13T23:57:36.023Z,15.19
